Weather at Redcliffe Airport

Public forecast

Using degrees Celsius for public forecast. Weather courtesy of forecast.io.

Closest aviation weather report (METAR) to Redcliffe Airport

Closest report is Brisbane International Airport, 11.0 nm (20.3 km) SSE. Retrieved 2020/10/27 20:30 UTC (0 seconds ago):

YBBN 272030Z 22007KT 9999 FEW012 BKN032 19/18 Q1017

Closest aviation forecast (TAF) to Redcliffe Airport

Closest forecast is Brisbane International Airport, 11.0 nm (20.3 km) SSE. Retrieved 2020/10/27 18:00 UTC (2 hours ago):

TAF YBBN 271713Z 2718/2900 19007KT 9999 -SHRA SCT012 BKN020 FM280000 07010KT 9999 -SHRA FEW025 BKN030 FM281400 19006KT 9999 -SHRA SCT012 BKN020 TEMPO 2718/2721 9999 -SHRA BKN010 TEMPO 2810/2821 3000 SHRA BKN010 PROB40 TEMPO 2804/2810 VRB30G45KT 1000 TSRA BKN010 SCT030CB